Terminal Aerodrome Forecast
Issued by NWS

Home | Current Version | Previous Version | Text Only | Print | Product List | Glossary On
Versions: 1 2 3 4 5 6 7 8 9 10 11 12 13 14 15 16 17 18 19 20 21 22 23 24 25 26 27 28 29 30 31 32 33
000
FTUS44 KLIX 282324
TAFHDC
TAF
KHDC 282324Z 2900/2924 15006KT P6SM SCT070
     FM290600 VRB03KT P6SM BKN008
     FM290900 00000KT 5SM BR BKN004
     FM291400 14007KT P6SM BKN008
     FM291600 15010KT P6SM BKN040
     FM291700 15010KT P6SM SCT070=

USA.gov is the U.S. government's official web portal to all federal, state and local government web resources and services.